»·PEaware :: AAL1209 KMIA-MPTO

AAL1209 :: KMIA-MPTO

FLIGHT INFORMATION

Flight Status: Arrived
Operator:
American Airlines
More flights by this operator :: More flights under this callsign
Pilot: Jerome G. (4242)
Aircraft: BOEING 737-800
(B738)
More flights by this aircraft type
Origin: KMIA Miami Intl
United States
Destination: MPTO Tocumen Intl
Panama
More flights between these airports :: More routes between these airports
Route: EONNS2 EONNS A509 URSUS UA301 UCA UG437 DUXUN OSUPA OSUP1B
File this flight plan on PilotEdge
Remarks: RMK / POWERED BY SIMBRIEF
Altitude:
(Current/Filed)
36,000ft
Speed:
(Current/Filed)
460kts
Departed: 03-Feb-18 04:02 PM
Arrived: 03-Feb-18 06:36 PM
Distance/Time
Traveled:
1005nm/2:33
Distance/Time
To Go:
Arrived

Flight Plot

Page will automatically refresh every two minutes.

Flight plan parsing failed; only flown route is shown


Map Options




Map Legend


Flown Route
Filed Route
Departure Airport
Arrival Airport
Navaid (VOR, NDB)
Fix

Horizontal Profiles

Position Reports

Time Latitude Longitude Heading Altitude Ground
Speed
03-Feb-18 15:48 25.797276 -80.284439 358 16ft 0kts
03-Feb-18 15:48 25.797276 -80.284439 358 16ft 0kts
03-Feb-18 15:49 25.797276 -80.284439 358 16ft 0kts
03-Feb-18 15:50 25.797276 -80.284439 358 16ft 0kts
03-Feb-18 15:51 25.797276 -80.284439 358 16ft 0kts
03-Feb-18 15:52 25.797276 -80.284439 358 16ft 0kts
03-Feb-18 15:53 25.797276 -80.284439 358 16ft 0kts
03-Feb-18 15:54 25.797276 -80.284439 358 16ft 0kts
03-Feb-18 15:55 25.797276 -80.284439 358 16ft 0kts
03-Feb-18 15:56 25.797248 -80.284439 358 15ft 1kts
03-Feb-18 15:57 25.796610 -80.284372 345 15ft 2kts
03-Feb-18 15:58 25.796284 -80.283940 266 15ft 2kts
03-Feb-18 15:59 25.796291 -80.283798 266 15ft 0kts
03-Feb-18 16:00 25.796291 -80.283798 266 15ft 0kts
03-Feb-18 16:01 25.796251 -80.284572 266 15ft 12kts
03-Feb-18 16:02 25.795674 -80.287446 257 15ft 12kts
03-Feb-18 16:03 25.795527 -80.290616 299 15ft 16kts
03-Feb-18 16:04 25.797327 -80.294165 297 15ft 11kts
03-Feb-18 16:05 25.798713 -80.296848 298 15ft 15kts
03-Feb-18 16:06 25.799348 -80.299975 301 15ft 9kts
03-Feb-18 16:07 25.800756 -80.300971 88 15ft 3kts
03-Feb-18 16:08 25.801667 -80.278323 87 302ft 154kts
03-Feb-18 16:09 25.784711 -80.229986 118 2796ft 200kts
03-Feb-18 16:10 25.750633 -80.168996 145 5213ft 265kts
03-Feb-18 16:11 25.674763 -80.162942 184 8525ft 287kts
03-Feb-18 16:12 25.591693 -80.170793 186 11244ft 321kts
03-Feb-18 16:13 25.500880 -80.135485 145 13099ft 381kts
03-Feb-18 16:14 25.412502 -80.066489 148 15724ft 395kts
03-Feb-18 16:15 25.318153 -80.000544 152 18049ft 408kts
03-Feb-18 16:16 25.220254 -79.932653 149 20109ft 424kts
03-Feb-18 16:17 25.119536 -79.860247 150 21976ft 437kts
03-Feb-18 16:18 25.015833 -79.786184 150 23572ft 451kts
03-Feb-18 16:19 24.909073 -79.710260 150 25036ft 462kts
03-Feb-18 16:20 24.799446 -79.632518 151 26394ft 472kts
03-Feb-18 16:21 24.687908 -79.553626 151 27618ft 481kts
03-Feb-18 16:22 24.574013 -79.473150 151 28730ft 489kts
03-Feb-18 16:23 24.459019 -79.391906 151 29991ft 491kts
03-Feb-18 16:24 24.344359 -79.311173 151 31332ft 490kts
03-Feb-18 16:25 24.229403 -79.230326 152 32605ft 489kts
03-Feb-18 16:26 24.115164 -79.150269 152 33869ft 487kts
03-Feb-18 16:27 23.998885 -79.077040 166 35035ft 474kts
03-Feb-18 16:28 23.871903 -79.052724 180 36178ft 459kts
03-Feb-18 16:29 23.744488 -79.036593 179 36190ft 462kts
03-Feb-18 16:30 23.617043 -79.020211 179 36187ft 461kts
03-Feb-18 16:31 23.489208 -79.003737 179 36183ft 461kts
03-Feb-18 16:32 23.361762 -78.987321 179 36180ft 461kts
03-Feb-18 16:33 23.234146 -78.970933 179 36178ft 461kts
03-Feb-18 16:34 23.106892 -78.954617 179 36177ft 461kts
03-Feb-18 16:35 22.979867 -78.938356 179 36174ft 460kts
03-Feb-18 16:36 22.852391 -78.922069 179 36173ft 460kts
03-Feb-18 16:37 22.725534 -78.905892 178 36173ft 459kts
03-Feb-18 16:38 22.598643 -78.889739 178 36172ft 459kts
03-Feb-18 16:39 22.471521 -78.873586 178 36170ft 459kts
03-Feb-18 16:40 22.344793 -78.857512 179 36168ft 459kts
03-Feb-18 16:41 22.218168 -78.841462 178 36169ft 458kts
03-Feb-18 16:42 22.091212 -78.825424 178 36168ft 458kts
03-Feb-18 16:43 21.965120 -78.818642 188 36167ft 450kts
03-Feb-18 16:44 21.840037 -78.826335 188 36166ft 449kts
03-Feb-18 16:45 21.715274 -78.833915 188 36165ft 449kts
03-Feb-18 16:46 21.590527 -78.841467 188 36164ft 450kts
03-Feb-18 16:47 21.465290 -78.849023 188 36163ft 449kts
03-Feb-18 16:48 21.340679 -78.856512 188 36154ft 449kts
03-Feb-18 16:49 21.215974 -78.864007 188 36152ft 449kts
03-Feb-18 16:50 21.090851 -78.871510 188 36149ft 449kts
03-Feb-18 16:51 20.966122 -78.878976 188 36145ft 449kts
03-Feb-18 16:52 20.841117 -78.886446 188 36138ft 449kts
03-Feb-18 16:53 20.716424 -78.893883 188 36129ft 449kts
03-Feb-18 16:54 20.591799 -78.901304 188 36121ft 448kts
03-Feb-18 16:55 20.466810 -78.908735 188 36115ft 449kts
03-Feb-18 16:56 20.342191 -78.916132 188 36110ft 449kts
03-Feb-18 16:57 20.217170 -78.923550 187 36105ft 449kts
03-Feb-18 16:58 20.092710 -78.930911 187 36101ft 448kts
03-Feb-18 16:59 19.967834 -78.938294 187 36097ft 448kts
03-Feb-18 17:00 19.843696 -78.945628 187 36094ft 447kts
03-Feb-18 17:01 19.719545 -78.952965 187 36090ft 447kts
03-Feb-18 17:02 19.594978 -78.960320 187 36085ft 447kts
03-Feb-18 17:03 19.470973 -78.967621 187 36084ft 446kts
03-Feb-18 17:04 19.347105 -78.977847 190 36082ft 445kts
03-Feb-18 17:05 19.224035 -78.990643 189 36079ft 445kts
03-Feb-18 17:06 19.100645 -79.000736 187 36077ft 446kts
03-Feb-18 17:07 18.976523 -79.007588 187 36075ft 445kts
03-Feb-18 17:08 18.853046 -79.014651 187 36073ft 445kts
03-Feb-18 17:09 18.729661 -79.021725 187 36071ft 444kts
03-Feb-18 17:10 18.605936 -79.028764 187 36068ft 444kts
03-Feb-18 17:11 18.482788 -79.035762 187 36065ft 444kts
03-Feb-18 17:12 18.359635 -79.042760 187 36055ft 444kts
03-Feb-18 17:13 18.235999 -79.049774 187 36054ft 444kts
03-Feb-18 17:14 18.112941 -79.056749 187 36052ft 443kts
03-Feb-18 17:15 17.989538 -79.063736 187 36052ft 443kts
03-Feb-18 17:16 17.867027 -79.070654 187 36054ft 440kts
03-Feb-18 17:17 17.744582 -79.077555 187 36053ft 441kts
03-Feb-18 17:18 17.621689 -79.084465 187 36052ft 441kts
03-Feb-18 17:19 17.499320 -79.091347 187 36051ft 440kts
03-Feb-18 17:20 17.377064 -79.098221 187 36049ft 440kts
03-Feb-18 17:21 17.254511 -79.105104 187 36048ft 440kts
03-Feb-18 17:22 17.132319 -79.111945 187 36050ft 440kts
03-Feb-18 17:23 17.009887 -79.118795 187 36049ft 439kts
03-Feb-18 17:24 16.887990 -79.125616 187 36047ft 439kts
03-Feb-18 17:25 16.766075 -79.132423 186 36046ft 439kts
03-Feb-18 17:26 16.643867 -79.139237 186 36044ft 438kts
03-Feb-18 17:27 16.522154 -79.146014 186 36042ft 438kts
03-Feb-18 17:28 16.400454 -79.152780 186 36040ft 438kts
03-Feb-18 17:29 16.278455 -79.159564 186 36038ft 438kts
03-Feb-18 17:30 16.156883 -79.166310 186 36036ft 438kts
03-Feb-18 17:31 16.034835 -79.173069 186 36033ft 438kts
03-Feb-18 17:32 15.913389 -79.179215 185 36031ft 437kts
03-Feb-18 17:33 15.792044 -79.185077 185 36029ft 437kts
03-Feb-18 17:34 15.670352 -79.190968 185 36026ft 436kts
03-Feb-18 17:35 15.549138 -79.196839 185 36023ft 436kts
03-Feb-18 17:36 15.427938 -79.202699 185 36021ft 436kts
03-Feb-18 17:38 15.306373 -79.208571 185 36019ft 436kts
03-Feb-18 17:39 15.185308 -79.214411 185 36016ft 436kts
03-Feb-18 17:40 15.063968 -79.220255 185 36013ft 436kts
03-Feb-18 17:41 14.942955 -79.226459 185 36011ft 435kts
03-Feb-18 17:42 14.822120 -79.233171 185 36009ft 435kts
03-Feb-18 17:43 14.700919 -79.239887 185 36006ft 435kts
03-Feb-18 17:44 14.580273 -79.246568 185 36004ft 434kts
03-Feb-18 17:45 14.459619 -79.253242 185 35996ft 435kts
03-Feb-18 17:46 14.338420 -79.259935 185 35993ft 435kts
03-Feb-18 17:47 14.217692 -79.266593 185 35992ft 435kts
03-Feb-18 17:47 14.117140 -79.272133 185 35991ft 434kts
03-Feb-18 17:49 13.976003 -79.279891 185 35968ft 434kts
03-Feb-18 17:50 13.855517 -79.286521 185 35966ft 434kts
03-Feb-18 17:51 13.734634 -79.293162 185 35965ft 434kts
03-Feb-18 17:51 13.634133 -79.298646 185 35966ft 434kts
03-Feb-18 17:53 13.493624 -79.306368 185 35965ft 434kts
03-Feb-18 17:54 13.372714 -79.312994 185 35965ft 434kts
03-Feb-18 17:54 13.272468 -79.318480 185 35965ft 433kts
03-Feb-18 17:55 13.152206 -79.325053 185 35965ft 433kts
03-Feb-18 17:57 13.011558 -79.332731 185 35964ft 432kts
03-Feb-18 17:57 12.911542 -79.338186 185 35964ft 432kts
03-Feb-18 17:58 12.791075 -79.344750 185 35965ft 432kts
03-Feb-18 17:59 12.671031 -79.351281 185 35964ft 432kts
03-Feb-18 18:00 12.551013 -79.357793 185 35960ft 433kts
03-Feb-18 18:01 12.430510 -79.364354 185 35953ft 433kts
03-Feb-18 18:02 12.310465 -79.370875 185 35959ft 432kts
03-Feb-18 18:03 12.190444 -79.377378 185 35958ft 432kts
03-Feb-18 18:04 12.070035 -79.383899 185 35957ft 432kts
03-Feb-18 18:05 11.950073 -79.390401 185 35954ft 431kts
03-Feb-18 18:06 11.829891 -79.396892 185 35952ft 431kts
03-Feb-18 18:07 11.710132 -79.403374 185 35950ft 432kts
03-Feb-18 18:08 11.590162 -79.409855 185 35948ft 432kts
03-Feb-18 18:09 11.469684 -79.416356 185 35941ft 432kts
03-Feb-18 18:10 11.349766 -79.422814 185 35939ft 432kts
03-Feb-18 18:11 11.229875 -79.429275 185 35937ft 432kts
03-Feb-18 18:12 11.109579 -79.435751 185 35929ft 432kts
03-Feb-18 18:13 10.989758 -79.442194 185 35926ft 432kts
03-Feb-18 18:14 10.869821 -79.448630 185 35937ft 432kts
03-Feb-18 18:15 10.749952 -79.455050 185 33824ft 430kts
03-Feb-18 18:16 10.630678 -79.461467 184 31344ft 424kts
03-Feb-18 18:17 10.514919 -79.467677 184 29332ft 408kts
03-Feb-18 18:18 10.403277 -79.473658 184 27394ft 398kts
03-Feb-18 18:19 10.293455 -79.479536 183 25464ft 394kts
03-Feb-18 18:20 10.183512 -79.485420 183 23516ft 396kts
03-Feb-18 18:21 10.073496 -79.491291 182 21569ft 396kts
03-Feb-18 18:22 9.963658 -79.497153 181 19733ft 392kts
03-Feb-18 18:23 9.858802 -79.497478 164 18863ft 361kts
03-Feb-18 18:24 9.769250 -79.460552 152 17600ft 334kts
03-Feb-18 18:25 9.685424 -79.422385 153 16356ft 325kts
03-Feb-18 18:26 9.603850 -79.385472 153 15142ft 319kts
03-Feb-18 18:27 9.518690 -79.362883 170 13935ft 317kts
03-Feb-18 18:28 9.431617 -79.351497 170 12741ft 312kts
03-Feb-18 18:29 9.346315 -79.339797 170 11571ft 308kts
03-Feb-18 18:30 9.261936 -79.328038 170 10413ft 304kts
03-Feb-18 18:31 9.178941 -79.316426 170 9274ft 296kts
03-Feb-18 18:32 9.098193 -79.305119 170 8166ft 289kts
03-Feb-18 18:33 9.018579 -79.299591 195 7062ft 287kts
03-Feb-18 18:34 8.947953 -79.335346 209 5974ft 277kts
03-Feb-18 18:35 8.883052 -79.371039 209 4970ft 257kts
03-Feb-18 18:36 8.847890 -79.421294 298 3905ft 227kts
03-Feb-18 18:37 8.885464 -79.468158 343 3050ft 203kts
03-Feb-18 18:38 8.938737 -79.454214 26 2221ft 206kts
03-Feb-18 18:39 8.985824 -79.427748 28 1449ft 177kts
03-Feb-18 18:40 9.024263 -79.405904 29 601ft 143kts
03-Feb-18 18:41 9.057390 -79.387116 30 66ft 105kts
03-Feb-18 18:42 9.065712 -79.382918 341 66ft 9kts
03-Feb-18 18:43 9.067334 -79.384136 324 66ft 4kts
03-Feb-18 18:44 9.067560 -79.384280 332 66ft 0kts
03-Feb-18 18:45 9.067561 -79.384281 332 66ft 0kts
03-Feb-18 18:46 9.067561 -79.384281 332 66ft 0kts
03-Feb-18 18:47 9.067561 -79.384281 332 66ft 0kts
03-Feb-18 18:48 9.067561 -79.384281 332 66ft 0kts

Navigation Log

Ident Type
Flight plan parsing failed, navigation log unavailable